Etretat — FIDP — position and weather

sailwx.info

Track history (hours):
 
Tides and Currents Weather Stations Pressure Air Temp Water Temp Dewpoint Dewpoint Depression Visibility Wind Speed Wind Dir Waves Ship Positions

Etretat

Last reported at 2016-Aug-30 22:33 UTC. Time now 2016-Aug-30 22:39 UTC.
Position N 50°49' W 001°06'.

Length 187 m; draft 6 m.

Type: Ship. MMSI: 228022900.

Date/timePositionNaut miles runAvg speedWind from/ knotsBaromVisibWave heightAir tempDewpointWater temp
2016-Aug-30 22:33N 50°49' W 001°06'0 0.0
2016-Aug-30 21:34N 50°49' W 001°06'2 2.0
2016-Aug-30 20:33N 50°47' W 001°06'9 8.7
2016-Aug-30 19:34N 50°40' W 000°56'2020.1
2016-Aug-30 18:34N 50°23' W 000°41'2120.9
2016-Aug-30 17:34N 50°03' W 000°30'2020.4
2016-Aug-30 16:33N 49°46' W 000°14'2019.7
2016-Aug-30 15:34N 49°29' E 000°04'2 1.9
2016-Aug-30 14:33N 49°29' E 000°07'0 0.0
2016-Aug-30 13:33N 49°29' E 000°07'0 0.0
2016-Aug-30 12:33N 49°29' E 000°07'0 0.0
2016-Aug-30 11:33N 49°29' E 000°07'0 0.0
2016-Aug-30 10:33N 49°29' E 000°07'0 0.0
2016-Aug-30 09:33N 49°29' E 000°07'0 0.0
2016-Aug-30 08:33N 49°29' E 000°07'0 0.0
2016-Aug-30 07:34N 49°29' E 000°07'0 0.0
2016-Aug-30 06:33N 49°29' E 000°07'8 8.5
2016-Aug-30 05:33N 49°35' W 000°02'6 5.6
2016-Aug-30 04:33N 49°40' W 000°07'2 2.1
2016-Aug-30 03:34N 49°42' W 000°08'1615.8
2016-Aug-30 02:34N 49°56' W 000°20'1615.9
2016-Aug-30 01:34N 50°09' W 000°34'1616.1
2016-Aug-30 00:33N 50°23' W 000°45'1616.5
2016-Aug-29 23:34N 50°39' W 000°55'1110.9
2016-Aug-29 22:33N 50°47' W 001°06'2 1.8
2016-Aug-29 21:33N 50°49' W 001°06'0 0.0
2016-Aug-29 20:33N 50°49' W 001°06'7 7.4
2016-Aug-29 19:34N 50°42' W 001°01'2121.2
2016-Aug-29 18:33N 50°23' W 000°46'2121.0
2016-Aug-29 17:34N 50°05' W 000°28'2120.6
2016-Aug-29 16:34N 49°47' W 000°13'2020.1
2016-Aug-29 15:34N 49°30' E 000°02'3 2.9
2016-Aug-29 14:33N 49°29' E 000°07'0 0.0
2016-Aug-29 13:33N 49°29' E 000°07'0 0.0
2016-Aug-29 12:33N 49°29' E 000°07'0 0.0
2016-Aug-29 11:33N 49°29' E 000°07'0 0.0
2016-Aug-29 10:33N 49°29' E 000°07'0 0.0
2016-Aug-29 09:33N 49°29' E 000°07'0 0.0
2016-Aug-29 08:33N 49°29' E 000°07'0 0.0
2016-Aug-29 07:33N 49°29' E 000°07'0 0.0
2016-Aug-29 06:33N 49°29' E 000°07'8 8.2
2016-Aug-29 05:33N 49°34' W 000°03'1010.2
2016-Aug-29 04:33N 49°44' W 000°09'1110.5
2016-Aug-29 03:33N 49°53' W 000°16'1010.5
2016-Aug-29 02:33N 50°02' W 000°25'3013.2
2016-Aug-29 00:17N 50°28' W 000°47'1114.8
2016-Aug-28 23:34N 50°38' W 000°55'1111.1
2016-Aug-28 22:33N 50°47' W 001°06'2 2.1
2016-Aug-28 21:33N 50°49' W 001°06'0 0.1
2016-Aug-28 20:33N 50°49' W 001°06'1110.8
2016-Aug-28 19:33N 50°40' W 000°56'2919.5
2016-Aug-28 18:03N 50°14' W 000°35'1019.2
2016-Aug-28 17:33N 50°06' W 000°27'2019.6
2016-Aug-28 16:33N 49°48' W 000°13'2019.6
2016-Aug-28 15:33N 49°31' E 000°01'4 4.3
2016-Aug-28 14:33N 49°29' E 000°07'0 0.0
2016-Aug-28 13:33N 49°29' E 000°07'0 0.0
2016-Aug-28 12:33N 49°29' E 000°07'0 0.0
2016-Aug-28 11:33N 49°29' E 000°07'0 0.0
2016-Aug-28 10:33N 49°29' E 000°07'0 0.0
2016-Aug-28 09:33N 49°29' E 000°07'0 0.0
2016-Aug-28 08:33N 49°29' E 000°07'0 0.0
2016-Aug-28 07:33N 49°29' E 000°07'0 0.0
2016-Aug-28 06:33N 49°29' E 000°07'8 8.4
2016-Aug-28 05:34N 49°36' W 000°01'7 7.3
2016-Aug-28 04:33N 49°42' W 000°06'2 2.3
2016-Aug-28 03:33N 49°42' W 000°09'1313.4
2016-Aug-28 02:34N 49°54' W 000°17'1615.9
2016-Aug-28 01:34N 50°08' W 000°29'1615.8
2016-Aug-28 00:33N 50°23' W 000°39'1515.5
2016-Aug-27 23:34N 50°35' W 000°53'1413.8
2016-Aug-27 22:34N 50°47' W 001°06'2 2.1
2016-Aug-27 21:34N 50°49' W 001°06'0 0.1
2016-Aug-27 20:34N 50°49' W 001°06'10 9.9
2016-Aug-27 19:34N 50°41' W 000°57'2020.2
2016-Aug-27 18:33N 50°23' W 000°41'2019.8
2016-Aug-27 17:33N 50°05' W 000°26'2019.7
2016-Aug-27 16:34N 49°48' W 000°13'2019.7
2016-Aug-27 15:34N 49°30' E 000°01'4 3.8
2016-Aug-27 14:33N 49°29' E 000°07'0 0.0
2016-Aug-27 13:33N 49°29' E 000°07'0 0.0
2016-Aug-27 12:33N 49°29' E 000°07'0 0.0
2016-Aug-27 11:33N 49°29' E 000°07'0 0.0
2016-Aug-27 10:33N 49°29' E 000°07'0 0.0
2016-Aug-27 09:33N 49°29' E 000°07'0 0.0
2016-Aug-27 08:33N 49°29' E 000°07'0 0.0
2016-Aug-27 07:33N 49°29' E 000°07'0 0.0
2016-Aug-27 06:33N 49°29' E 000°07'16 7.9
2016-Aug-27 04:33N 49°42' W 000°08'4 3.9
2016-Aug-27 03:33N 49°44' W 000°13'1 0.6
2016-Aug-27 02:33N 49°44' W 000°14'10 9.9
2016-Aug-27 01:34N 49°54' W 000°16'1414.4
2016-Aug-27 00:33N 50°08' W 000°23'1515.2
2016-Aug-26 23:33N 50°20' W 000°37'1514.8
2016-Aug-26 22:34N 50°32' W 000°51'1414.1
2016-Aug-26 21:34N 50°44' W 001°03'5 5.2
2016-Aug-26 20:34N 50°49' W 001°06'0 0.0
2016-Aug-26 19:34N 50°49' W 001°06'0 0.0
2016-Aug-26 18:34N 50°49' W 001°06'0 0.0
2016-Aug-26 17:34N 50°49' W 001°06'0 0.0
2016-Aug-26 16:34N 50°49' W 001°06'0 0.0
2016-Aug-26 15:34N 50°49' W 001°06'0 0.0
2016-Aug-26 14:34N 50°49' W 001°06'0 0.0
2016-Aug-26 13:34N 50°49' W 001°06'0 0.0
2016-Aug-26 12:33N 50°49' W 001°06'0 0.0
2016-Aug-26 11:34N 50°49' W 001°06'0 0.0
2016-Aug-26 10:34N 50°49' W 001°06'0 0.0
2016-Aug-26 09:34N 50°49' W 001°06'0 0.0
2016-Aug-26 08:34N 50°49' W 001°06'0 0.0
2016-Aug-26 07:34N 50°49' W 001°06'0 0.0
2016-Aug-26 06:34N 50°49' W 001°06'19 9.5
2016-Aug-26 04:33N 50°32' W 000°51'1514.6
2016-Aug-26 03:33N 50°19' W 000°41'1514.6
2016-Aug-26 02:33N 50°06' W 000°30'1414.4
2016-Aug-26 01:33N 49°55' W 000°17'10 9.7
2016-Aug-26 00:33N 49°45' W 000°13'1 1.3
2016-Aug-25 23:33N 49°46' W 000°14'2 1.8
2016-Aug-25 22:33N 49°44' W 000°15'5 5.2
2016-Aug-25 21:33N 49°40' W 000°09'1212.0
2016-Aug-25 20:34N 49°31' E 000°01'4 3.8
2016-Aug-25 19:33N 49°29' E 000°07'0 0.0
2016-Aug-25 18:34N 49°29' E 000°07'0 0.0
2016-Aug-25 17:33N 49°29' E 000°07'0 0.0
2016-Aug-25 16:34N 49°29' E 000°07'0 0.0
2016-Aug-25 15:33N 49°29' E 000°07'0 0.0
2016-Aug-25 14:34N 49°29' E 000°07'0 0.0
2016-Aug-25 13:33N 49°29' E 000°07'0 0.0
2016-Aug-25 12:34N 49°29' E 000°07'0 0.0
2016-Aug-25 11:34N 49°29' E 000°07'0 0.0
2016-Aug-25 10:33N 49°29' E 000°07'0 0.0
2016-Aug-25 09:34N 49°29' E 000°07'0 0.0
2016-Aug-25 08:34N 49°29' E 000°07'0 0.0
2016-Aug-25 07:34N 49°29' E 000°07'0 0.0
2016-Aug-25 06:34N 49°29' E 000°07'16 7.8
2016-Aug-25 04:33N 49°42' W 000°06'8 8.3
2016-Aug-25 03:33N 49°49' W 000°14'1515.2
2016-Aug-25 02:34N 50°02' W 000°26'1515.4
2016-Aug-25 01:33N 50°16' W 000°36'1615.4
2016-Aug-25 00:30N 50°30' W 000°48'1515.7
2016-Aug-24 23:33N 50°43' W 001°00'7 6.8
2016-Aug-24 22:34N 50°49' W 001°06'0 0.0
2016-Aug-24 21:34N 50°49' W 001°06'1 0.7
2016-Aug-24 20:34N 50°48' W 001°07'9 9.4
2016-Aug-24 19:33N 50°41' W 000°57'2221.7
2016-Aug-24 18:33N 50°23' W 000°39'2322.9
2016-Aug-24 17:33N 50°02' W 000°23'2322.7
2016-Aug-24 16:33N 49°42' W 000°08'1615.9
2016-Aug-24 15:33N 49°29' E 000°07'0 0.0
2016-Aug-24 14:34N 49°29' E 000°07'0 0.0
2016-Aug-24 13:33N 49°29' E 000°07'0 0.0
2016-Aug-24 12:33N 49°29' E 000°07'0 0.0
2016-Aug-24 11:33N 49°29' E 000°07'0 0.0
2016-Aug-24 10:34N 49°29' E 000°07'0 0.0
2016-Aug-24 09:33N 49°29' E 000°07'0 0.0
2016-Aug-24 08:34N 49°29' E 000°07'0 0.0
2016-Aug-24 07:34N 49°29' E 000°07'0 0.0
2016-Aug-24 06:33N 49°29' E 000°07'17 8.3
2016-Aug-24 04:33N 49°43' W 000°08'1010.2
2016-Aug-24 03:34N 49°51' W 000°16'1514.5
2016-Aug-24 02:33N 50°04' W 000°27'1514.9
2016-Aug-24 01:33N 50°18' W 000°37'1514.9
2016-Aug-24 00:34N 50°31' W 000°48'1414.4
2016-Aug-23 23:33N 50°43' W 001°00'7 6.7
2016-Aug-23 22:33N 50°49' W 001°06'0 0.0
2016-Aug-23 21:34N 50°49' W 001°06'0 0.3
2016-Aug-23 20:34N 50°49' W 001°06'10 9.9
2016-Aug-23 19:33N 50°40' W 000°58'1817.9
2016-Aug-23 18:33N 50°24' W 000°46'2020.4
2016-Aug-23 17:33N 50°07' W 000°29'2221.6
2016-Aug-23 16:33N 49°48' W 000°12'2120.9
2016-Aug-23 15:33N 49°30' E 000°03'3 2.6
2016-Aug-23 14:33N 49°29' E 000°07'0 0.0
2016-Aug-23 13:33N 49°29' E 000°07'0 0.0
2016-Aug-23 12:33N 49°29' E 000°07'0 0.0
2016-Aug-23 11:33N 49°29' E 000°07'0 0.0
2016-Aug-23 10:33N 49°29' E 000°07'0 0.0
2016-Aug-23 09:33N 49°29' E 000°07'0 0.0
2016-Aug-23 08:33N 49°29' E 000°07'0 0.0
2016-Aug-23 07:33N 49°29' E 000°07'0 0.0
2016-Aug-23 06:33N 49°29' E 000°07'9 9.1
2016-Aug-23 05:34N 49°35' W 000°04'6 6.3
2016-Aug-23 04:33N 49°41' W 000°08'1010.0
2016-Aug-23 03:33N 49°50' W 000°15'1414.2
2016-Aug-23 02:33N 50°02' W 000°25'1414.3
2016-Aug-23 01:33N 50°15' W 000°35'1514.5
2016-Aug-23 00:33N 50°28' W 000°46'1514.8
2016-Aug-22 23:33N 50°41' W 000°57'10 9.5
2016-Aug-22 22:33N 50°49' W 001°06'0 0.0
2016-Aug-22 21:34N 50°49' W 001°06'0 0.1
2016-Aug-22 20:33N 50°49' W 001°06'9 9.0
2016-Aug-22 19:34N 50°41' W 000°58'1818.4
2016-Aug-22 18:33N 50°25' W 000°45'2020.1
2016-Aug-22 17:33N 50°07' W 000°30'2120.9
2016-Aug-22 16:33N 49°48' W 000°15'2120.9
2016-Aug-22 15:33N 49°30' E 000°01'4 4.0
2016-Aug-22 14:33N 49°29' E 000°07'0 0.0
2016-Aug-22 13:33N 49°29' E 000°07'0 0.0
2016-Aug-22 12:33N 49°29' E 000°07'0 0.0
2016-Aug-22 11:33N 49°29' E 000°07'0 0.0
2016-Aug-22 10:33N 49°29' E 000°07'0 0.0
2016-Aug-22 09:34N 49°29' E 000°07'0 0.0
2016-Aug-22 08:34N 49°29' E 000°07'0 0.0
2016-Aug-22 07:33N 49°29' E 000°07'0 0.0
2016-Aug-22 06:33N 49°29' E 000°07'9 8.8
2016-Aug-22 05:33N 49°35' W 000°03'1211.8
2016-Aug-22 04:33N 49°46' W 000°11'1010.3
2016-Aug-22 03:33N 49°55' W 000°19'1010.3
2016-Aug-22 02:33N 50°04' W 000°27'1211.7
2016-Aug-22 01:31N 50°15' W 000°35'1713.1
2016-Aug-22 00:15N 50°30' W 000°46'1013.7
2016-Aug-21 23:33N 50°38' W 000°54'1312.7
2016-Aug-21 22:33N 50°48' W 001°07'1 1.1
2016-Aug-21 21:33N 50°49' W 001°06'0 0.1
2016-Aug-21 20:34N 50°49' W 001°06'9 8.8
2016-Aug-21 19:34N 50°42' W 000°57'2119.7
2016-Aug-21 18:31N 50°23' W 000°43'1919.4
2016-Aug-21 17:32N 50°06' W 000°30'2020.2
2016-Aug-21 16:33N 49°49' W 000°15'2020.0
2016-Aug-21 15:34N 49°32' E 000°00'5 5.0
2016-Aug-21 14:33N 49°29' E 000°07'0 0.0
2016-Aug-21 13:33N 49°29' E 000°07'0 0.0
2016-Aug-21 12:33N 49°29' E 000°07'0 0.0
2016-Aug-21 11:33N 49°29' E 000°07'0 0.0
2016-Aug-21 10:33N 49°29' E 000°07'0 0.0
2016-Aug-21 09:33N 49°29' E 000°07'0 0.0
2016-Aug-21 08:33N 49°29' E 000°07'0 0.0
2016-Aug-21 07:33N 49°29' E 000°07'0 0.0
2016-Aug-21 06:33N 49°29' E 000°07'8 8.1
2016-Aug-21 05:33N 49°35' W 000°02'1010.4
2016-Aug-21 04:33N 49°44' W 000°10'1110.6
2016-Aug-21 03:33N 49°53' W 000°18'1110.6
2016-Aug-21 02:33N 50°03' W 000°25'3213.8
2016-Aug-21 00:12N 50°31' W 000°48'1014.9
2016-Aug-20 23:34N 50°40' W 000°56'1111.0
2016-Aug-20 22:34N 50°49' W 001°06'  
Track history (hours):
 
Tides and Currents Weather Stations Pressure Air Temp Water Temp Dewpoint Dewpoint Depression Visibility Wind Speed Wind Dir Waves Ship Positions

Etretat

Last reported at 2016-Aug-30 22:33 UTC. Time now 2016-Aug-30 22:39 UTC.
Position N 50°49' W 001°06'.

Length 187 m; draft 6 m.

Type: Ship. MMSI: 228022900.

Date/timePositionNaut miles runAvg speedWind from/ knotsBaromVisibWave heightAir tempDewpointWater temp
2016-Aug-30 22:33N 50°49' W 001°06'0 0.0
2016-Aug-30 21:34N 50°49' W 001°06'2 2.0
2016-Aug-30 20:33N 50°47' W 001°06'9 8.7
2016-Aug-30 19:34N 50°40' W 000°56'2020.1
2016-Aug-30 18:34N 50°23' W 000°41'2120.9
2016-Aug-30 17:34N 50°03' W 000°30'2020.4
2016-Aug-30 16:33N 49°46' W 000°14'2019.7
2016-Aug-30 15:34N 49°29' E 000°04'2 1.9
2016-Aug-30 14:33N 49°29' E 000°07'0 0.0
2016-Aug-30 13:33N 49°29' E 000°07'0 0.0
2016-Aug-30 12:33N 49°29' E 000°07'0 0.0
2016-Aug-30 11:33N 49°29' E 000°07'0 0.0
2016-Aug-30 10:33N 49°29' E 000°07'0 0.0
2016-Aug-30 09:33N 49°29' E 000°07'0 0.0
2016-Aug-30 08:33N 49°29' E 000°07'0 0.0
2016-Aug-30 07:34N 49°29' E 000°07'0 0.0
2016-Aug-30 06:33N 49°29' E 000°07'8 8.5
2016-Aug-30 05:33N 49°35' W 000°02'6 5.6
2016-Aug-30 04:33N 49°40' W 000°07'2 2.1
2016-Aug-30 03:34N 49°42' W 000°08'1615.8
2016-Aug-30 02:34N 49°56' W 000°20'1615.9
2016-Aug-30 01:34N 50°09' W 000°34'1616.1
2016-Aug-30 00:33N 50°23' W 000°45'1616.5
2016-Aug-29 23:34N 50°39' W 000°55'1110.9
2016-Aug-29 22:33N 50°47' W 001°06'2 1.8
2016-Aug-29 21:33N 50°49' W 001°06'0 0.0
2016-Aug-29 20:33N 50°49' W 001°06'7 7.4
2016-Aug-29 19:34N 50°42' W 001°01'2121.2
2016-Aug-29 18:33N 50°23' W 000°46'2121.0
2016-Aug-29 17:34N 50°05' W 000°28'2120.6
2016-Aug-29 16:34N 49°47' W 000°13'2020.1
2016-Aug-29 15:34N 49°30' E 000°02'3 2.9
2016-Aug-29 14:33N 49°29' E 000°07'0 0.0
2016-Aug-29 13:33N 49°29' E 000°07'0 0.0
2016-Aug-29 12:33N 49°29' E 000°07'0 0.0
2016-Aug-29 11:33N 49°29' E 000°07'0 0.0
2016-Aug-29 10:33N 49°29' E 000°07'0 0.0
2016-Aug-29 09:33N 49°29' E 000°07'0 0.0
2016-Aug-29 08:33N 49°29' E 000°07'0 0.0
2016-Aug-29 07:33N 49°29' E 000°07'0 0.0
2016-Aug-29 06:33N 49°29' E 000°07'8 8.2
2016-Aug-29 05:33N 49°34' W 000°03'1010.2
2016-Aug-29 04:33N 49°44' W 000°09'1110.5
2016-Aug-29 03:33N 49°53' W 000°16'1010.5
2016-Aug-29 02:33N 50°02' W 000°25'3013.2
2016-Aug-29 00:17N 50°28' W 000°47'1114.8
2016-Aug-28 23:34N 50°38' W 000°55'1111.1
2016-Aug-28 22:33N 50°47' W 001°06'2 2.1
2016-Aug-28 21:33N 50°49' W 001°06'0 0.1
2016-Aug-28 20:33N 50°49' W 001°06'1110.8
2016-Aug-28 19:33N 50°40' W 000°56'2919.5
2016-Aug-28 18:03N 50°14' W 000°35'1019.2
2016-Aug-28 17:33N 50°06' W 000°27'2019.6
2016-Aug-28 16:33N 49°48' W 000°13'2019.6
2016-Aug-28 15:33N 49°31' E 000°01'4 4.3
2016-Aug-28 14:33N 49°29' E 000°07'0 0.0
2016-Aug-28 13:33N 49°29' E 000°07'0 0.0
2016-Aug-28 12:33N 49°29' E 000°07'0 0.0
2016-Aug-28 11:33N 49°29' E 000°07'0 0.0
2016-Aug-28 10:33N 49°29' E 000°07'0 0.0
2016-Aug-28 09:33N 49°29' E 000°07'0 0.0
2016-Aug-28 08:33N 49°29' E 000°07'0 0.0
2016-Aug-28 07:33N 49°29' E 000°07'0 0.0
2016-Aug-28 06:33N 49°29' E 000°07'8 8.4
2016-Aug-28 05:34N 49°36' W 000°01'7 7.3
2016-Aug-28 04:33N 49°42' W 000°06'2 2.3
2016-Aug-28 03:33N 49°42' W 000°09'1313.4
2016-Aug-28 02:34N 49°54' W 000°17'1615.9
2016-Aug-28 01:34N 50°08' W 000°29'1615.8
2016-Aug-28 00:33N 50°23' W 000°39'1515.5
2016-Aug-27 23:34N 50°35' W 000°53'1413.8
2016-Aug-27 22:34N 50°47' W 001°06'2 2.1
2016-Aug-27 21:34N 50°49' W 001°06'0 0.1
2016-Aug-27 20:34N 50°49' W 001°06'10 9.9
2016-Aug-27 19:34N 50°41' W 000°57'2020.2
2016-Aug-27 18:33N 50°23' W 000°41'2019.8
2016-Aug-27 17:33N 50°05' W 000°26'2019.7
2016-Aug-27 16:34N 49°48' W 000°13'2019.7
2016-Aug-27 15:34N 49°30' E 000°01'4 3.8
2016-Aug-27 14:33N 49°29' E 000°07'0 0.0
2016-Aug-27 13:33N 49°29' E 000°07'0 0.0
2016-Aug-27 12:33N 49°29' E 000°07'0 0.0
2016-Aug-27 11:33N 49°29' E 000°07'0 0.0
2016-Aug-27 10:33N 49°29' E 000°07'0 0.0
2016-Aug-27 09:33N 49°29' E 000°07'0 0.0
2016-Aug-27 08:33N 49°29' E 000°07'0 0.0
2016-Aug-27 07:33N 49°29' E 000°07'0 0.0
2016-Aug-27 06:33N 49°29' E 000°07'16 7.9
2016-Aug-27 04:33N 49°42' W 000°08'4 3.9
2016-Aug-27 03:33N 49°44' W 000°13'1 0.6
2016-Aug-27 02:33N 49°44' W 000°14'10 9.9
2016-Aug-27 01:34N 49°54' W 000°16'1414.4
2016-Aug-27 00:33N 50°08' W 000°23'1515.2
2016-Aug-26 23:33N 50°20' W 000°37'1514.8
2016-Aug-26 22:34N 50°32' W 000°51'1414.1
2016-Aug-26 21:34N 50°44' W 001°03'5 5.2
2016-Aug-26 20:34N 50°49' W 001°06'0 0.0
2016-Aug-26 19:34N 50°49' W 001°06'0 0.0
2016-Aug-26 18:34N 50°49' W 001°06'0 0.0
2016-Aug-26 17:34N 50°49' W 001°06'0 0.0
2016-Aug-26 16:34N 50°49' W 001°06'0 0.0
2016-Aug-26 15:34N 50°49' W 001°06'0 0.0
2016-Aug-26 14:34N 50°49' W 001°06'0 0.0
2016-Aug-26 13:34N 50°49' W 001°06'0 0.0
2016-Aug-26 12:33N 50°49' W 001°06'0 0.0
2016-Aug-26 11:34N 50°49' W 001°06'0 0.0
2016-Aug-26 10:34N 50°49' W 001°06'0 0.0
2016-Aug-26 09:34N 50°49' W 001°06'0 0.0
2016-Aug-26 08:34N 50°49' W 001°06'0 0.0
2016-Aug-26 07:34N 50°49' W 001°06'0 0.0
2016-Aug-26 06:34N 50°49' W 001°06'19 9.5
2016-Aug-26 04:33N 50°32' W 000°51'1514.6
2016-Aug-26 03:33N 50°19' W 000°41'1514.6
2016-Aug-26 02:33N 50°06' W 000°30'1414.4
2016-Aug-26 01:33N 49°55' W 000°17'10 9.7
2016-Aug-26 00:33N 49°45' W 000°13'1 1.3
2016-Aug-25 23:33N 49°46' W 000°14'2 1.8
2016-Aug-25 22:33N 49°44' W 000°15'5 5.2
2016-Aug-25 21:33N 49°40' W 000°09'1212.0
2016-Aug-25 20:34N 49°31' E 000°01'4 3.8
2016-Aug-25 19:33N 49°29' E 000°07'0 0.0
2016-Aug-25 18:34N 49°29' E 000°07'0 0.0
2016-Aug-25 17:33N 49°29' E 000°07'0 0.0
2016-Aug-25 16:34N 49°29' E 000°07'0 0.0
2016-Aug-25 15:33N 49°29' E 000°07'0 0.0
2016-Aug-25 14:34N 49°29' E 000°07'0 0.0
2016-Aug-25 13:33N 49°29' E 000°07'0 0.0
2016-Aug-25 12:34N 49°29' E 000°07'0 0.0
2016-Aug-25 11:34N 49°29' E 000°07'0 0.0
2016-Aug-25 10:33N 49°29' E 000°07'0 0.0
2016-Aug-25 09:34N 49°29' E 000°07'0 0.0
2016-Aug-25 08:34N 49°29' E 000°07'0 0.0
2016-Aug-25 07:34N 49°29' E 000°07'0 0.0
2016-Aug-25 06:34N 49°29' E 000°07'16 7.8
2016-Aug-25 04:33N 49°42' W 000°06'8 8.3
2016-Aug-25 03:33N 49°49' W 000°14'1515.2
2016-Aug-25 02:34N 50°02' W 000°26'1515.4
2016-Aug-25 01:33N 50°16' W 000°36'1615.4
2016-Aug-25 00:30N 50°30' W 000°48'1515.7
2016-Aug-24 23:33N 50°43' W 001°00'7 6.8
2016-Aug-24 22:34N 50°49' W 001°06'0 0.0
2016-Aug-24 21:34N 50°49' W 001°06'1 0.7
2016-Aug-24 20:34N 50°48' W 001°07'9 9.4
2016-Aug-24 19:33N 50°41' W 000°57'2221.7
2016-Aug-24 18:33N 50°23' W 000°39'2322.9
2016-Aug-24 17:33N 50°02' W 000°23'2322.7
2016-Aug-24 16:33N 49°42' W 000°08'1615.9
2016-Aug-24 15:33N 49°29' E 000°07'0 0.0
2016-Aug-24 14:34N 49°29' E 000°07'0 0.0
2016-Aug-24 13:33N 49°29' E 000°07'0 0.0
2016-Aug-24 12:33N 49°29' E 000°07'0 0.0
2016-Aug-24 11:33N 49°29' E 000°07'0 0.0
2016-Aug-24 10:34N 49°29' E 000°07'0 0.0
2016-Aug-24 09:33N 49°29' E 000°07'0 0.0
2016-Aug-24 08:34N 49°29' E 000°07'0 0.0
2016-Aug-24 07:34N 49°29' E 000°07'0 0.0
2016-Aug-24 06:33N 49°29' E 000°07'17 8.3
2016-Aug-24 04:33N 49°43' W 000°08'1010.2
2016-Aug-24 03:34N 49°51' W 000°16'1514.5
2016-Aug-24 02:33N 50°04' W 000°27'1514.9
2016-Aug-24 01:33N 50°18' W 000°37'1514.9
2016-Aug-24 00:34N 50°31' W 000°48'1414.4
2016-Aug-23 23:33N 50°43' W 001°00'7 6.7
2016-Aug-23 22:33N 50°49' W 001°06'0 0.0
2016-Aug-23 21:34N 50°49' W 001°06'0 0.3
2016-Aug-23 20:34N 50°49' W 001°06'10 9.9
2016-Aug-23 19:33N 50°40' W 000°58'1817.9
2016-Aug-23 18:33N 50°24' W 000°46'2020.4
2016-Aug-23 17:33N 50°07' W 000°29'2221.6
2016-Aug-23 16:33N 49°48' W 000°12'2120.9
2016-Aug-23 15:33N 49°30' E 000°03'3 2.6
2016-Aug-23 14:33N 49°29' E 000°07'0 0.0
2016-Aug-23 13:33N 49°29' E 000°07'0 0.0
2016-Aug-23 12:33N 49°29' E 000°07'0 0.0
2016-Aug-23 11:33N 49°29' E 000°07'0 0.0
2016-Aug-23 10:33N 49°29' E 000°07'0 0.0
2016-Aug-23 09:33N 49°29' E 000°07'0 0.0
2016-Aug-23 08:33N 49°29' E 000°07'0 0.0
2016-Aug-23 07:33N 49°29' E 000°07'0 0.0
2016-Aug-23 06:33N 49°29' E 000°07'9 9.1
2016-Aug-23 05:34N 49°35' W 000°04'6 6.3
2016-Aug-23 04:33N 49°41' W 000°08'1010.0
2016-Aug-23 03:33N 49°50' W 000°15'1414.2
2016-Aug-23 02:33N 50°02' W 000°25'1414.3
2016-Aug-23 01:33N 50°15' W 000°35'1514.5
2016-Aug-23 00:33N 50°28' W 000°46'1514.8
2016-Aug-22 23:33N 50°41' W 000°57'10 9.5
2016-Aug-22 22:33N 50°49' W 001°06'0 0.0
2016-Aug-22 21:34N 50°49' W 001°06'0 0.1
2016-Aug-22 20:33N 50°49' W 001°06'9 9.0
2016-Aug-22 19:34N 50°41' W 000°58'1818.4
2016-Aug-22 18:33N 50°25' W 000°45'2020.1
2016-Aug-22 17:33N 50°07' W 000°30'2120.9
2016-Aug-22 16:33N 49°48' W 000°15'2120.9
2016-Aug-22 15:33N 49°30' E 000°01'4 4.0
2016-Aug-22 14:33N 49°29' E 000°07'0 0.0
2016-Aug-22 13:33N 49°29' E 000°07'0 0.0
2016-Aug-22 12:33N 49°29' E 000°07'0 0.0
2016-Aug-22 11:33N 49°29' E 000°07'0 0.0
2016-Aug-22 10:33N 49°29' E 000°07'0 0.0
2016-Aug-22 09:34N 49°29' E 000°07'0 0.0
2016-Aug-22 08:34N 49°29' E 000°07'0 0.0
2016-Aug-22 07:33N 49°29' E 000°07'0 0.0
2016-Aug-22 06:33N 49°29' E 000°07'9 8.8
2016-Aug-22 05:33N 49°35' W 000°03'1211.8
2016-Aug-22 04:33N 49°46' W 000°11'1010.3
2016-Aug-22 03:33N 49°55' W 000°19'1010.3
2016-Aug-22 02:33N 50°04' W 000°27'1211.7
2016-Aug-22 01:31N 50°15' W 000°35'1713.1
2016-Aug-22 00:15N 50°30' W 000°46'1013.7
2016-Aug-21 23:33N 50°38' W 000°54'1312.7
2016-Aug-21 22:33N 50°48' W 001°07'1 1.1
2016-Aug-21 21:33N 50°49' W 001°06'0 0.1
2016-Aug-21 20:34N 50°49' W 001°06'9 8.8
2016-Aug-21 19:34N 50°42' W 000°57'2119.7
2016-Aug-21 18:31N 50°23' W 000°43'1919.4
2016-Aug-21 17:32N 50°06' W 000°30'2020.2
2016-Aug-21 16:33N 49°49' W 000°15'2020.0
2016-Aug-21 15:34N 49°32' E 000°00'5 5.0
2016-Aug-21 14:33N 49°29' E 000°07'0 0.0
2016-Aug-21 13:33N 49°29' E 000°07'0 0.0
2016-Aug-21 12:33N 49°29' E 000°07'0 0.0
2016-Aug-21 11:33N 49°29' E 000°07'0 0.0
2016-Aug-21 10:33N 49°29' E 000°07'0 0.0
2016-Aug-21 09:33N 49°29' E 000°07'0 0.0
2016-Aug-21 08:33N 49°29' E 000°07'0 0.0
2016-Aug-21 07:33N 49°29' E 000°07'0 0.0
2016-Aug-21 06:33N 49°29' E 000°07'8 8.1
2016-Aug-21 05:33N 49°35' W 000°02'1010.4
2016-Aug-21 04:33N 49°44' W 000°10'1110.6
2016-Aug-21 03:33N 49°53' W 000°18'1110.6
2016-Aug-21 02:33N 50°03' W 000°25'3213.8
2016-Aug-21 00:12N 50°31' W 000°48'1014.9
2016-Aug-20 23:34N 50°40' W 000°56'1111.0
2016-Aug-20 22:34N 50°49' W 001°06'  

Dump ship's entire track history